Time;durP1;ratioP1;P1;durP2;ratioP2;P2;SDS_P1;SDS_P2;PMS_P1;PMS_P2;Temp;Humidity;BMP_temperature;BMP_pressure;BME280_temperature;BME280_humidity;BME280_pressure;Samples;Min_cycle;Max_cycle;Signal;HPM_P1;HPM_P2
2022/01/23 00:00:26;;;;;;;59.37;24.20;;;;;;;0.35;63.92;101491.50;4958305;28;101302;-94
2022/01/23 00:02:55;;;;;;;58.87;24.40;;;;;;;0.26;63.99;101476.63;4953916;28;97142;-93
2022/01/23 00:05:23;;;;;;;52.87;23.20;;;;;;;0.41;63.80;101505.47;4946786;28;97065;-93
2022/01/23 00:07:51;;;;;;;55.13;23.53;;;;;;;0.22;64.27;101478.25;4949839;28;98906;-93
2022/01/23 00:10:17;;;;;;;58.00;24.80;;;;;;;0.41;64.42;101508.06;4960216;28;98803;-94
2022/01/23 00:12:50;;;;;;;56.67;22.87;;;;;;;0.35;64.19;101510.47;4970251;28;97184;-93
2022/01/23 00:18:00;;;;;;;56.33;23.87;;;;;;;0.42;63.79;101503.75;4959326;28;99363;-93
2022/01/23 00:20:26;;;;;;;51.20;23.67;;;;;;;0.44;63.61;101502.09;4942348;28;99988;-93
2022/01/23 00:22:57;;;;;;;57.67;23.90;;;;;;;0.41;64.13;101499.44;4945256;28;96555;-93
2022/01/23 00:30:55;;;;;;;62.57;26.53;;;;;;;0.43;63.89;101474.50;4959360;28;102078;-93
2022/01/23 00:33:22;;;;;;;60.23;24.80;;;;;;;0.41;64.38;101478.78;4940001;28;96633;-94
2022/01/23 00:35:48;;;;;;;56.67;25.00;;;;;;;0.19;64.23;101415.34;4941058;28;96667;-92
2022/01/23 00:38:14;;;;;;;56.33;25.40;;;;;;;0.29;63.96;101439.69;4940000;28;100975;-94
2022/01/23 00:40:42;;;;;;;65.93;28.63;;;;;;;0.13;63.99;101404.84;4945955;28;100693;-93
2022/01/23 00:43:16;;;;;;;66.27;26.67;;;;;;;0.47;63.92;101486.69;4950056;28;96762;-92
2022/01/23 00:45:50;;;;;;;60.77;25.87;;;;;;;0.35;64.18;101473.41;4946952;28;96627;-92
2022/01/23 00:48:17;;;;;;;56.57;24.77;;;;;;;-0.18;64.56;101391.13;4977049;28;99659;-93
2022/01/23 00:50:45;;;;;;;62.13;26.10;;;;;;;0.20;64.85;101464.47;4949397;28;99932;-93
2022/01/23 00:53:12;;;;;;;54.43;22.90;;;;;;;0.35;64.65;101491.50;4954041;28;96716;-93
2022/01/23 00:55:40;;;;;;;60.40;26.33;;;;;;;0.20;65.07;101458.41;4963120;28;96650;-94
2022/01/23 00:58:06;;;;;;;58.33;23.73;;;;;;;-0.11;64.43;101416.28;4939940;28;100401;-93
2022/01/23 01:00:32;;;;;;;57.00;22.90;;;;;;;0.30;64.56;101486.22;4953222;28;100404;-93
2022/01/23 01:02:58;;;;;;;55.93;22.73;;;;;;;0.12;65.14;101459.94;4962536;28;96922;-93
2022/01/23 01:05:26;;;;;;;55.17;22.03;;;;;;;0.32;64.94;101496.59;4925566;28;97106;-93
2022/01/23 01:07:54;;;;;;;52.97;22.93;;;;;;;0.25;65.49;101492.09;4965498;28;98892;-92
2022/01/23 01:10:25;;;;;;;50.13;22.70;;;;;;;-0.10;65.18;101437.81;4911400;28;100362;-93
2022/01/23 01:12:55;;;;;;;53.08;21.50;;;;;;;0.24;64.88;101486.06;4949885;28;96993;-94
2022/01/23 01:31:34;;;;;;;47.83;19.30;;;;;;;0.48;65.54;101513.38;4973172;28;100135;-93
2022/01/23 01:39:04;;;;;;;40.20;17.20;;;;;;;0.54;65.57;101510.94;4961124;28;96867;-93
2022/01/23 01:41:30;;;;;;;41.07;18.23;;;;;;;0.33;65.92;101457.91;4933185;28;100305;-93
2022/01/23 01:43:59;;;;;;;42.73;17.17;;;;;;;0.65;65.70;101502.63;4933936;28;97202;-93
2022/01/23 01:46:53;;;;;;;38.77;17.93;;;;;;;0.04;65.81;101427.84;4950925;28;96741;-94
2022/01/23 01:49:30;;;;;;;42.03;17.37;;;;;;;0.39;65.97;101470.97;4925916;28;102276;-91
2022/01/23 01:52:01;;;;;;;49.33;18.80;;;;;;;-0.03;65.67;101388.06;4981199;28;99810;-93
2022/01/23 01:54:30;;;;;;;42.07;16.70;;;;;;;0.13;65.93;101402.28;4974170;28;96647;-93
2022/01/23 01:57:08;;;;;;;44.23;18.63;;;;;;;0.72;65.93;101492.44;4957712;28;97599;-92
2022/01/23 02:02:48;;;;;;;34.37;16.57;;;;;;;0.77;65.84;101493.44;4972972;28;99481;-93
2022/01/23 02:10:51;;;;;;;38.67;17.47;;;;;;;0.64;66.15;101498.31;4969741;28;98968;-92
2022/01/23 02:22:25;;;;;;;39.27;17.20;;;;;;;0.53;65.94;101467.88;4981919;28;97029;-92
2022/01/23 02:57:06;;;;;;;30.10;14.13;;;;;;;0.78;66.56;101492.59;4968447;28;101259;-93
2022/01/23 02:59:36;;;;;;;33.47;14.40;;;;;;;0.83;66.39;101509.97;4960898;28;96756;-93
2022/01/23 03:02:42;;;;;;;27.53;14.10;;;;;;;0.94;66.01;101511.97;4980948;28;98213;-93
2022/01/23 03:05:35;;;;;;;29.07;14.57;;;;;;;0.95;65.99;101516.28;4940807;28;100909;-94
2022/01/23 03:10:43;;;;;;;31.13;13.00;;;;;;;0.81;66.87;101515.94;4972048;28;96709;-92
2022/01/23 03:24:22;;;;;;;29.17;13.17;;;;;;;0.75;67.02;101511.47;4961942;28;96839;-93
2022/01/23 03:29:21;;;;;;;29.07;13.40;;;;;;;0.85;67.21;101517.78;4976711;28;101560;-94
2022/01/23 03:34:20;;;;;;;26.75;12.52;;;;;;;0.81;67.20;101506.47;4958056;28;96772;-93
2022/01/23 03:36:46;;;;;;;25.37;11.10;;;;;;;0.22;67.23;101408.53;4925194;28;100345;-95
2022/01/23 03:39:12;;;;;;;31.63;13.77;;;;;;;0.74;67.15;101475.28;4936243;28;100187;-92
2022/01/23 03:41:40;;;;;;;25.90;12.40;;;;;;;0.66;67.12;101456.97;4945637;28;97874;-93
2022/01/23 03:44:08;;;;;;;29.37;13.77;;;;;;;0.82;67.13;101487.56;4946673;28;97533;-93
2022/01/23 03:51:49;;;;;;;28.90;12.83;;;;;;;0.99;67.24;101519.00;4962569;28;98018;-93
2022/01/23 03:54:15;;;;;;;29.50;13.13;;;;;;;0.75;67.36;101466.69;4962523;28;96639;-93
2022/01/23 03:56:41;;;;;;;27.70;12.53;;;;;;;0.99;67.65;101519.00;4918924;28;101249;-93
2022/01/23 03:59:07;;;;;;;26.67;12.77;;;;;;;0.68;67.91;101473.41;4949292;28;100580;-93
2022/01/23 04:01:33;;;;;;;26.30;12.73;;;;;;;0.92;67.72;101516.22;4924500;28;96744;-93
2022/01/23 04:04:02;;;;;;;28.07;12.80;;;;;;;0.60;67.90;101455.13;4933844;28;96927;-93
2022/01/23 04:06:28;;;;;;;28.47;13.20;;;;;;;0.81;68.14;101492.66;4943805;28;101926;-93
2022/01/23 04:08:54;;;;;;;25.97;13.20;;;;;;;0.99;67.78;101519.00;4984456;28;101103;-93
2022/01/23 04:11:20;;;;;;;25.30;12.27;;;;;;;1.05;67.63;101519.13;4943800;28;96590;-93
2022/01/23 04:13:52;;;;;;;27.63;12.47;;;;;;;1.01;67.73;101519.88;4915980;28;96860;-94
2022/01/23 04:35:45;;;;;;;27.40;12.23;;;;;;;1.02;68.12;101537.16;4965967;28;97100;-93
2022/01/23 04:45:18;;;;;;;22.93;11.67;;;;;;;0.94;68.23;101517.13;4965978;28;99680;-93
2022/01/23 04:59:53;;;;;;;26.33;11.33;;;;;;;1.13;68.53;101576.19;4946814;28;100678;-93
2022/01/23 05:05:04;;;;;;;19.90;9.70;;;;;;;1.20;68.08;101575.53;4958705;28;96773;-93
2022/01/23 05:07:44;;;;;;;22.93;11.00;;;;;;;1.21;67.86;101579.84;4939286;28;97148;-93
2022/01/23 05:10:12;;;;;;;28.70;11.30;;;;;;;1.25;67.76;101588.56;4925834;28;97939;-93
2022/01/23 05:12:46;;;;;;;25.20;11.13;;;;;;;1.13;68.35;101571.94;4960373;28;101188;-93
2022/01/23 05:15:12;;;;;;;21.30;10.00;;;;;;;1.19;68.03;101578.94;4932664;28;96748;-93
2022/01/23 05:17:38;;;;;;;25.00;10.73;;;;;;;1.27;68.17;101587.75;4930791;28;96752;-93
2022/01/23 05:20:05;;;;;;;24.73;9.63;;;;;;;1.20;67.93;101579.84;4936376;28;100777;-95
2022/01/23 05:22:47;;;;;;;24.20;11.27;;;;;;;1.24;68.08;101589.41;4933357;28;99711;-93
2022/01/23 05:25:23;;;;;;;21.70;9.32;;;;;;;1.18;67.90;101569.44;4943278;28;97513;-91
2022/01/23 05:27:52;;;;;;;24.77;10.83;;;;;;;1.17;68.04;101561.66;4950173;28;96737;-93
2022/01/23 05:30:18;;;;;;;24.83;11.33;;;;;;;1.24;67.97;101568.72;4925100;28;100045;-92
2022/01/23 05:32:43;;;;;;;23.00;9.90;;;;;;;1.04;67.60;101543.22;4973651;28;100383;-94
2022/01/23 05:35:11;;;;;;;21.67;10.23;;;;;;;1.06;68.57;101546.72;4944900;28;96693;-93
2022/01/23 05:37:38;;;;;;;21.27;9.70;;;;;;;1.27;67.94;101579.13;4940828;28;96895;-94
2022/01/23 05:40:07;;;;;;;20.80;10.37;;;;;;;1.32;68.07;101574.94;4935719;28;100422;-92
2022/01/23 05:42:36;;;;;;;20.83;10.00;;;;;;;1.22;67.99;101562.63;4943564;28;100127;-94
2022/01/23 05:45:03;;;;;;;22.33;10.73;;;;;;;0.65;67.91;101476.78;4958887;28;96760;-92
2022/01/23 05:47:38;;;;;;;22.23;10.33;;;;;;;1.12;67.80;101553.75;4942521;28;96782;-92
2022/01/23 05:50:15;;;;;;;25.70;11.37;;;;;;;1.17;68.43;101559.06;4947047;28;99679;-94
2022/01/23 05:52:55;;;;;;;23.57;10.77;;;;;;;1.21;68.21;101564.31;4945552;28;100275;-94
2022/01/23 05:55:41;;;;;;;28.87;14.80;;;;;;;1.20;68.57;101557.41;4931417;28;96622;-92
2022/01/23 05:58:10;;;;;;;27.93;13.97;;;;;;;0.94;68.38;101532.63;4960180;28;96822;-93
2022/01/23 06:00:43;;;;;;;25.77;13.00;;;;;;;1.28;67.87;101575.69;4947414;28;100891;-94
2022/01/23 06:03:15;;;;;;;28.60;12.10;;;;;;;1.25;68.47;101580.78;4950579;28;100185;-95
2022/01/23 06:05:45;;;;;;;23.57;10.97;;;;;;;1.24;68.68;101569.56;4953710;28;97193;-93
2022/01/23 06:08:24;;;;;;;25.20;10.57;;;;;;;1.42;68.31;101604.50;4963728;28;96790;-94
2022/01/23 06:10:55;;;;;;;21.93;11.13;;;;;;;1.44;69.03;101600.22;4941392;28;100447;-94
2022/01/23 06:13:33;;;;;;;19.92;9.85;;;;;;;1.43;68.87;101604.53;4946566;28;100513;-93
2022/01/23 06:15:58;;;;;;;21.40;11.47;;;;;;;1.36;69.18;101587.09;4940708;28;96746;-95
2022/01/23 06:18:25;;;;;;;26.10;10.43;;;;;;;1.09;68.85;101536.47;4971792;28;97122;-94
2022/01/23 06:21:11;;;;;;;20.10;10.17;;;;;;;1.45;68.70;101591.63;4967286;28;97098;-94
2022/01/23 06:24:14;;;;;;;22.40;9.47;;;;;;;1.28;68.83;101565.34;4946058;28;96852;-94
2022/01/23 06:27:06;;;;;;;17.63;9.30;;;;;;;1.43;69.47;101593.31;4967497;28;96932;-94
2022/01/23 06:29:37;;;;;;;20.20;9.20;;;;;;;1.48;69.51;101594.28;4939325;28;96820;-92
2022/01/23 06:32:02;;;;;;;19.87;9.53;;;;;;;1.44;68.95;101595.94;4931052;28;99108;-92
2022/01/23 06:34:29;;;;;;;21.40;9.30;;;;;;;1.41;69.14;101587.22;4974829;28;100008;-93
2022/01/23 06:36:55;;;;;;;20.97;9.90;;;;;;;1.32;69.35;101573.22;4948046;28;96746;-94
2022/01/23 06:39:23;;;;;;;16.73;9.47;;;;;;;1.47;69.77;101600.31;4962269;28;96852;-93
2022/01/23 06:41:53;;;;;;;19.53;10.00;;;;;;;1.15;69.85;101548.66;4944062;28;101814;-93
2022/01/23 06:44:34;;;;;;;20.33;10.00;;;;;;;1.47;69.81;101595.13;4946213;28;97007;-93
2022/01/23 06:47:00;;;;;;;21.20;9.50;;;;;;;1.56;69.43;101595.34;4936606;28;97187;-93
2022/01/23 06:49:27;;;;;;;21.43;10.70;;;;;;;1.49;69.86;101598.63;4917878;28;96648;-94
2022/01/23 06:51:53;;;;;;;22.70;10.50;;;;;;;1.36;69.70;101581.94;4953293;28;101453;-93
2022/01/23 06:54:18;;;;;;;19.63;10.07;;;;;;;1.43;70.11;101601.09;4947244;28;99995;-93
2022/01/23 06:56:45;;;;;;;23.17;11.97;;;;;;;1.06;70.02;101538.97;4925123;28;97098;-94
2022/01/23 06:59:12;;;;;;;23.20;11.10;;;;;;;0.92;69.72;101503.28;4963526;28;96917;-92
2022/01/23 07:01:42;;;;;;;19.97;10.27;;;;;;;1.43;69.74;101593.31;4952637;28;98502;-93
2022/01/23 07:04:27;;;;;;;22.30;10.20;;;;;;;1.49;69.81;101599.50;4926876;28;100401;-93
2022/01/23 07:07:16;;;;;;;20.27;10.30;;;;;;;1.49;69.37;101596.91;4933001;28;96562;-93
2022/01/23 07:10:09;;;;;;;28.30;11.60;;;;;;;1.59;69.67;101613.53;4932546;28;97549;-92
2022/01/23 07:12:52;;;;;;;19.53;10.70;;;;;;;1.70;69.14;101613.78;4938912;28;101241;-94
2022/01/23 07:15:29;;;;;;;21.17;10.57;;;;;;;1.74;69.22;101620.75;4957265;28;101575;-91
2022/01/23 07:18:18;;;;;;;25.20;12.60;;;;;;;1.75;69.46;101630.31;4945201;28;97063;-93
2022/01/23 07:21:03;;;;;;;20.13;9.73;;;;;;;1.53;69.65;101603.03;4954490;28;96764;-93
2022/01/23 07:23:33;;;;;;;22.20;10.67;;;;;;;1.68;69.44;101641.34;4954939;28;100849;-93
2022/01/23 07:25:59;;;;;;;22.27;10.23;;;;;;;1.64;69.30;101631.75;4977862;28;99586;-95
2022/01/23 07:28:35;;;;;;;24.67;10.27;;;;;;;1.62;69.46;101630.84;4942073;28;97105;-94
2022/01/23 07:31:04;;;;;;;22.87;9.40;;;;;;;1.65;69.65;101654.22;4928753;28;97790;-93
2022/01/23 07:33:33;;;;;;;18.70;9.97;;;;;;;1.15;69.51;101558.16;4954727;28;101346;-95
2022/01/23 07:35:59;;;;;;;21.87;10.67;;;;;;;1.35;69.72;101595.72;4953385;28;101767;-92
2022/01/23 07:38:25;;;;;;;27.13;11.10;;;;;;;1.65;69.60;101651.63;4932524;28;96711;-94
2022/01/23 07:40:59;;;;;;;24.77;11.17;;;;;;;1.27;69.65;101584.31;4945903;28;96782;-95
2022/01/23 07:43:55;;;;;;;23.70;11.10;;;;;;;1.54;69.90;101622.88;4969229;28;98279;-93
2022/01/23 07:46:51;;;;;;;19.23;9.90;;;;;;;1.43;69.61;101611.44;4936053;28;100482;-95
2022/01/23 07:49:32;;;;;;;21.83;10.40;;;;;;;1.30;69.57;101586.97;4945840;28;96614;-95
2022/01/23 07:52:30;;;;;;;27.40;10.60;;;;;;;1.74;69.98;101665.66;4933872;28;97114;-94
2022/01/23 07:55:22;;;;;;;23.13;10.63;;;;;;;1.72;69.73;101659.59;4966349;28;97821;-93
2022/01/23 07:58:15;;;;;;;18.43;10.67;;;;;;;1.74;69.61;101675.13;4964835;28;97594;-95
2022/01/23 08:00:59;;;;;;;21.23;10.90;;;;;;;1.75;69.97;101688.13;4964723;28;96865;-95
2022/01/23 08:03:25;;;;;;;22.77;11.30;;;;;;;1.76;70.11;101681.22;4952682;28;97023;-93
2022/01/23 08:06:28;;;;;;;25.20;12.00;;;;;;;1.79;70.01;101691.66;4959279;28;99121;-94
2022/01/23 08:09:17;;;;;;;24.07;12.27;;;;;;;1.83;70.36;101702.97;4959497;28;97815;-94
2022/01/23 08:11:43;;;;;;;23.80;11.93;;;;;;;1.85;70.25;101711.66;4937449;28;97409;-94
2022/01/23 08:14:08;;;;;;;23.27;12.60;;;;;;;1.78;69.99;101701.16;4926391;28;96968;-88
2022/01/23 08:16:35;;;;;;;25.40;13.13;;;;;;;1.89;69.98;101709.19;4964933;28;101630;-94
2022/01/23 08:19:01;;;;;;;23.10;11.77;;;;;;;1.83;70.46;101708.13;4947289;28;101063;-94
2022/01/23 08:21:26;;;;;;;26.43;13.77;;;;;;;1.92;70.06;101717.03;4966393;28;97200;-93
2022/01/23 08:23:54;;;;;;;28.20;14.43;;;;;;;1.92;69.92;101722.19;4954303;28;96694;-94
2022/01/23 08:26:21;;;;;;;23.80;13.17;;;;;;;1.90;70.30;101729.03;4942279;28;100440;-95
2022/01/23 08:28:47;;;;;;;27.97;13.77;;;;;;;1.45;69.96;101627.84;4967678;28;101388;-93
2022/01/23 08:31:12;;;;;;;30.73;14.20;;;;;;;2.01;69.80;101724.13;4962565;28;97129;-94
2022/01/23 08:33:38;;;;;;;30.73;15.23;;;;;;;1.95;69.85;101701.56;4921625;28;97040;-94
2022/01/23 08:36:05;;;;;;;27.47;13.57;;;;;;;1.94;69.88;101714.44;4956139;28;100972;-93
2022/01/23 08:38:30;;;;;;;29.00;13.53;;;;;;;2.05;70.06;101731.13;4949726;28;99887;-95
2022/01/23 08:43:57;;;;;;;27.97;13.80;;;;;;;2.11;70.20;101728.66;4922180;28;97479;-92
2022/01/23 08:46:22;;;;;;;23.60;12.77;;;;;;;2.17;69.72;101722.75;4941197;28;100217;-92
2022/01/23 08:48:49;;;;;;;24.87;12.43;;;;;;;2.17;70.11;101720.16;4940255;28;97332;-93
2022/01/23 08:51:14;;;;;;;27.77;13.20;;;;;;;2.26;69.60;101733.31;4953469;28;97064;-90
2022/01/23 08:53:41;;;;;;;30.70;14.67;;;;;;;2.18;69.95;101708.94;4974635;28;96990;-89
2022/01/23 08:56:07;;;;;;;26.70;13.57;;;;;;;2.21;69.42;101704.72;4964071;28;100795;-94
2022/01/23 08:58:33;;;;;;;30.50;14.20;;;;;;;2.10;70.03;101687.19;4921211;28;98290;-91
2022/01/23 09:01:00;;;;;;;29.60;15.63;;;;;;;2.46;69.49;101739.81;4962204;28;96895;-93
2022/01/23 09:03:26;;;;;;;33.60;16.43;;;;;;;2.17;69.23;101683.88;4972669;28;96823;-93
2022/01/23 09:05:51;;;;;;;28.70;15.40;;;;;;;2.60;69.03;101741.84;4951046;28;102766;-93
2022/01/23 09:08:19;;;;;;;31.67;15.07;;;;;;;2.41;68.96;101702.53;4947587;28;100751;-93
2022/01/23 09:10:53;;;;;;;29.33;14.57;;;;;;;2.50;69.54;101732.97;4936467;28;96831;-92
2022/01/23 09:16:17;;;;;;;26.50;13.00;;;;;;;2.48;69.41;101738.16;4949304;28;102570;-93
2022/01/23 09:18:43;;;;;;;24.80;13.40;;;;;;;2.47;69.42;101722.53;4928966;28;99755;-92
2022/01/23 09:21:11;;;;;;;26.43;13.43;;;;;;;2.61;69.43;101741.00;4984863;28;96816;-92
2022/01/23 09:23:36;;;;;;;30.33;15.07;;;;;;;2.70;69.38;101754.13;4949217;28;97043;-92
2022/01/23 09:26:09;;;;;;;30.07;14.47;;;;;;;2.71;69.26;101758.50;4978216;28;101231;-92
2022/01/23 09:28:36;;;;;;;31.87;15.00;;;;;;;2.78;69.16;101756.91;4966090;28;100003;-91
2022/01/23 09:31:02;;;;;;;27.53;13.77;;;;;;;2.65;69.59;101738.50;4957072;28;98767;-92
2022/01/23 09:33:29;;;;;;;26.97;14.80;;;;;;;2.76;69.67;101763.78;4950374;28;96910;-92
2022/01/23 09:35:55;;;;;;;27.63;15.70;;;;;;;2.82;69.29;101758.72;4933812;28;101246;-92
2022/01/23 09:38:21;;;;;;;30.17;15.93;;;;;;;2.60;69.63;101731.47;4965925;28;99424;-94
2022/01/23 09:40:51;;;;;;;30.23;15.90;;;;;;;2.84;69.38;101744.94;4944303;28;97466;-90
2022/01/23 09:43:18;;;;;;;27.63;15.20;;;;;;;2.88;69.84;101757.13;4944669;28;102140;-92
2022/01/23 09:45:50;;;;;;;27.80;16.20;;;;;;;2.85;69.55;101744.09;4955191;28;100993;-92
2022/01/23 09:48:17;;;;;;;28.30;16.60;;;;;;;2.60;69.79;101701.22;4946920;28;100978;-92
2022/01/23 09:50:46;;;;;;;30.97;15.33;;;;;;;2.61;69.31;101691.72;4944537;28;97253;-95
2022/01/23 09:53:13;;;;;;;32.27;17.20;;;;;;;2.87;69.75;101747.59;4934283;28;96808;-93
2022/01/23 09:55:40;;;;;;;34.77;19.17;;;;;;;2.80;69.83;101727.56;4930592;28;100083;-92
2022/01/23 09:58:06;;;;;;;39.40;19.80;;;;;;;2.94;69.93;101759.84;4937942;28;99600;-92
2022/01/23 10:00:32;;;;;;;36.47;18.83;;;;;;;2.55;70.21;101713.22;4927652;28;96904;-90
2022/01/23 10:02:58;;;;;;;39.27;19.20;;;;;;;2.81;70.55;101749.19;4943101;28;97076;-89
2022/01/23 10:05:24;;;;;;;36.47;18.40;;;;;;;2.86;70.30;101765.72;4945324;28;101461;-89
2022/01/23 10:07:52;;;;;;;37.23;17.60;;;;;;;2.94;70.26;101766.75;4941280;28;100946;-89
2022/01/23 10:10:22;;;;;;;32.47;15.97;;;;;;;3.01;70.15;101763.44;4934631;28;96850;-88
2022/01/23 10:12:55;;;;;;;37.30;18.50;;;;;;;3.00;70.22;101764.28;4961492;28;96814;-89
2022/01/23 10:15:27;;;;;;;41.70;20.33;;;;;;;2.64;70.40;101704.75;4954741;28;98619;-89
2022/01/23 10:17:55;;;;;;;46.83;22.77;;;;;;;2.92;70.30;101766.72;4920273;28;100854;-90
2022/01/23 10:20:21;;;;;;;44.83;23.50;;;;;;;2.63;70.55;101710.78;4951095;28;96943;-89
2022/01/23 10:22:50;;;;;;;38.67;21.53;;;;;;;2.91;70.43;101743.34;4953103;28;97270;-89
2022/01/23 10:25:21;;;;;;;35.37;20.03;;;;;;;2.85;70.35;101720.75;4950928;28;99931;-90
2022/01/23 10:27:51;;;;;;;34.20;18.33;;;;;;;2.67;70.44;101702.22;4953390;28;103007;-89
2022/01/23 10:30:21;;;;;;;30.47;18.10;;;;;;;2.77;70.78;101711.06;4947608;28;97382;-90
2022/01/23 10:33:10;;;;;;;34.77;17.50;;;;;;;3.20;69.98;101758.59;4915663;28;97438;-90
2022/01/23 10:36:04;;;;;;;29.67;15.80;;;;;;;2.97;69.91;101712.34;4924236;28;101621;-90
2022/01/23 10:38:37;;;;;;;26.77;15.47;;;;;;;3.16;70.18;101749.88;4949327;28;97643;-92
2022/01/23 10:42:11;;;;;;;30.97;16.30;;;;;;;3.02;70.14;101730.56;4969268;28;96817;-94
2022/01/23 10:49:50;;;;;;;24.00;13.07;;;;;;;3.20;70.66;101753.41;4954992;28;97247;-90
2022/01/23 10:52:27;;;;;;;22.87;15.00;;;;;;;3.17;70.59;101741.25;4952823;28;96729;-87
2022/01/23 10:54:52;;;;;;;22.30;13.93;;;;;;;3.14;70.61;101733.41;4961661;28;96787;-89
2022/01/23 10:57:18;;;;;;;27.40;14.20;;;;;;;3.20;70.89;101743.03;4918664;28;101479;-91
2022/01/23 10:59:46;;;;;;;25.30;14.00;;;;;;;3.24;71.01;101752.63;4944433;28;101334;-91
2022/01/23 11:02:34;;;;;;;23.50;14.03;;;;;;;3.08;70.64;101717.72;4964372;28;96884;-90
2022/01/23 11:05:06;;;;;;;23.70;14.20;;;;;;;3.25;70.70;101733.59;4940016;28;96868;-91
2022/01/23 11:07:33;;;;;;;25.03;15.27;;;;;;;3.32;70.85;101749.34;4926524;28;97572;-90
2022/01/23 11:10:05;;;;;;;24.27;14.67;;;;;;;3.35;71.16;101759.78;4960747;28;101536;-89
2022/01/23 11:18:02;;;;;;;23.97;14.07;;;;;;;3.52;70.40;101767.88;4948101;28;100051;-90
2022/01/23 11:20:33;;;;;;;26.57;15.33;;;;;;;3.48;70.45;101770.38;4950665;28;101217;-89
2022/01/23 11:23:23;;;;;;;26.13;14.47;;;;;;;3.45;70.62;101767.72;4971779;28;97595;-88
2022/01/23 11:25:55;;;;;;;24.80;13.83;;;;;;;3.42;70.49;101763.34;4926705;28;96872;-89
2022/01/23 11:28:28;;;;;;;22.23;14.85;;;;;;;3.31;70.95;101741.50;4959812;28;97437;-88
2022/01/23 11:30:54;;;;;;;23.17;14.73;;;;;;;3.39;71.08;101753.78;4973048;28;98560;-90
2022/01/23 11:33:20;;;;;;;24.17;14.90;;;;;;;3.42;70.81;101742.56;4982758;28;96728;-89
2022/01/23 11:35:46;;;;;;;27.00;15.80;;;;;;;3.47;70.81;101751.34;4934507;28;96880;-88
2022/01/23 11:38:16;;;;;;;26.20;15.07;;;;;;;3.47;70.79;101753.06;4948695;28;97981;-90
2022/01/23 11:54:03;;;;;;;21.90;14.10;;;;;;;3.31;71.93;101759.66;4944781;28;98127;-92
2022/01/23 11:56:43;;;;;;;22.33;13.97;;;;;;;3.30;72.44;101760.53;4944727;28;96753;-92
2022/01/23 11:59:40;;;;;;;18.90;12.60;;;;;;;3.32;72.28;101764.03;4960060;28;99376;-92
2022/01/23 12:02:36;;;;;;;22.33;14.97;;;;;;;3.38;72.18;101766.75;4981007;28;97448;-91
2022/01/23 12:05:17;;;;;;;20.77;14.23;;;;;;;3.42;72.10;101767.66;4971322;28;97067;-91
2022/01/23 12:07:45;;;;;;;21.87;13.37;;;;;;;3.42;72.05;101765.94;4956286;28;96743;-91
2022/01/23 12:10:26;;;;;;;22.27;13.43;;;;;;;3.39;72.38;101771.06;4935319;28;98550;-86
2022/01/23 12:18:52;;;;;;;20.83;13.60;;;;;;;3.34;72.54;101754.53;4952055;28;97759;-85
2022/01/23 12:21:28;;;;;;;19.00;13.00;;;;;;;3.36;72.87;101739.88;4946194;28;101569;-87
2022/01/23 12:24:02;;;;;;;26.50;16.37;;;;;;;3.31;73.06;101731.13;4934895;28;100313;-86
2022/01/23 12:26:28;;;;;;;28.10;16.33;;;;;;;3.40;72.78;101734.78;4966090;28;97370;-86
2022/01/23 12:28:55;;;;;;;21.83;14.13;;;;;;;3.43;72.58;101743.44;4918327;28;96947;-86
2022/01/23 12:31:24;;;;;;;20.23;13.50;;;;;;;3.39;72.51;101726.94;4924267;28;101169;-86
2022/01/23 12:33:56;;;;;;;23.27;13.40;;;;;;;3.28;72.92;101703.38;4946666;28;101196;-86
2022/01/23 12:36:26;;;;;;;;;;;;;;;3.60;72.76;101757.59;4963084;28;96807;-87
2022/01/23 12:39:18;;;;;;;23.67;13.40;;;;;;;3.61;72.89;101754.19;4963164;28;96772;-90
2022/01/23 12:41:47;;;;;;;23.17;15.00;;;;;;;3.60;73.24;101762.78;4965874;28;101368;-91
2022/01/23 12:44:25;;;;;;;25.55;14.68;;;;;;;3.58;73.22;101751.53;4947886;28;100448;-89
2022/01/23 12:46:59;;;;;;;24.63;14.73;;;;;;;3.40;72.96;101728.69;4971335;28;98311;-88
2022/01/23 12:49:38;;;;;;;24.17;14.60;;;;;;;3.54;73.10;101758.38;4977497;28;98504;-85
2022/01/23 12:52:09;;;;;;;20.83;13.73;;;;;;;3.51;73.23;101747.06;4964138;28;101631;-86
2022/01/23 12:54:47;;;;;;;20.45;13.43;;;;;;;3.60;72.96;101748.09;4953131;28;99760;-92
2022/01/23 12:57:15;;;;;;;21.50;13.10;;;;;;;3.34;72.79;101707.81;4947694;28;97554;-90
2022/01/23 12:59:43;;;;;;;23.13;13.83;;;;;;;3.55;73.49;101754.94;4940329;28;97433;-87
2022/01/23 13:02:16;;;;;;;23.23;13.90;;;;;;;3.63;73.28;101749.84;4949562;28;101430;-84
2022/01/23 13:04:48;;;;;;;21.27;13.40;;;;;;;3.58;73.48;101738.53;4972390;28;97941;-81
2022/01/23 13:07:25;;;;;;;28.13;15.35;;;;;;;3.48;73.32;101710.66;4980811;28;97331;-83
2022/01/23 13:09:56;;;;;;;25.80;15.67;;;;;;;3.57;73.38;101726.38;4962490;28;97891;-82
2022/01/23 13:13:15;;;;;;;22.53;15.63;;;;;;;3.63;73.55;101740.34;4945823;28;99886;-86
2022/01/23 13:31:51;;;;;;;14.23;9.53;;;;;;;3.91;73.01;101747.72;4955476;28;96803;-90
2022/01/23 13:34:33;;;;;;;15.23;9.53;;;;;;;3.92;73.20;101754.66;4934137;28;100828;-88
2022/01/23 13:37:11;;;;;;;16.33;9.82;;;;;;;3.86;73.38;101758.91;4928120;28;100182;-89
2022/01/23 13:39:47;;;;;;;15.43;10.23;;;;;;;3.65;73.90;101734.31;4940714;28;97627;-89
2022/01/23 13:42:33;;;;;;;22.40;11.43;;;;;;;3.67;74.13;101759.47;4962267;28;98596;-90
2022/01/23 13:48:20;;;;;;;24.00;12.77;;;;;;;3.57;74.41;101757.53;4952857;28;100431;-89
2022/01/23 13:59:20;;;;;;;18.73;11.00;;;;;;;3.70;74.31;101761.25;4998189;28;100028;-89
2022/01/23 14:04:20;;;;;;;21.50;12.37;;;;;;;3.59;74.95;101753.25;4984720;28;97802;-89
2022/01/23 14:06:46;;;;;;;18.85;12.35;;;;;;;3.54;74.67;101754.91;4976485;28;100367;-88
2022/01/23 14:09:13;;;;;;;18.73;12.50;;;;;;;3.30;74.66;101719.00;4990596;28;100268;-90
2022/01/23 14:11:40;;;;;;;19.67;12.00;;;;;;;3.44;74.70;101732.22;5002812;28;96974;-89
2022/01/23 14:14:14;;;;;;;20.30;13.03;;;;;;;3.62;75.12;101763.69;4940383;28;97357;-88
2022/01/23 14:16:41;;;;;;;20.53;13.40;;;;;;;3.63;74.90;101783.63;4973319;28;101462;-89
2022/01/23 14:19:15;;;;;;;22.30;13.30;;;;;;;3.71;74.61;101783.78;4986246;28;101156;-88
2022/01/23 14:21:42;;;;;;;18.03;12.17;;;;;;;3.38;74.76;101754.63;4931732;28;97580;-88
2022/01/23 14:24:08;;;;;;;23.73;14.00;;;;;;;3.61;74.98;101785.34;4949395;28;97246;-88
2022/01/23 14:26:34;;;;;;;24.03;14.37;;;;;;;3.53;75.36;101787.78;4940223;28;100392;-88
2022/01/23 14:29:05;;;;;;;19.70;14.17;;;;;;;3.57;75.40;101788.72;4934246;28;98332;-88
2022/01/23 14:31:37;;;;;;;23.10;14.80;;;;;;;3.59;75.15;101792.22;4916022;28;97218;-88
2022/01/23 14:34:05;;;;;;;;;;;;;;;3.55;75.52;101790.38;4951367;28;97227;-88
2022/01/23 14:36:33;;;;;;;23.43;14.47;;;;;;;3.52;75.46;101806.81;4967091;28;101318;-88
2022/01/23 14:39:05;;;;;;;23.07;15.37;;;;;;;3.54;75.96;101794.72;4947612;28;99924;-88
2022/01/23 14:41:31;;;;;;;;;;;;;;;3.56;75.57;101800.81;4918705;28;96864;-89
2022/01/23 14:43:57;;;;;;;25.23;15.97;;;;;;;3.46;75.85;101798.03;4948674;28;97881;-88
2022/01/23 14:46:23;;;;;;;27.47;16.70;;;;;;;3.40;76.18;101791.00;4965347;28;97681;-90
2022/01/23 14:48:50;;;;;;;26.50;17.30;;;;;;;3.33;75.59;101768.38;4959462;28;98396;-90
2022/01/23 14:51:22;;;;;;;28.80;16.77;;;;;;;3.16;75.51;101729.13;4957478;28;96765;-91
2022/01/23 14:53:49;;;;;;;29.30;16.42;;;;;;;3.45;75.46;101780.69;4973424;28;97300;-88
2022/01/23 14:56:15;;;;;;;27.60;16.57;;;;;;;3.37;75.90;101773.66;4958440;28;98784;-89
2022/01/23 14:58:42;;;;;;;32.23;18.17;;;;;;;3.32;75.69;101783.06;4968686;28;101018;-91
2022/01/23 15:01:12;;;;;;;32.70;18.27;;;;;;;3.53;75.81;101800.78;4919062;28;96676;-91
2022/01/23 15:03:40;;;;;;;30.53;18.67;;;;;;;3.36;75.77;101790.06;4932305;28;97461;-90
2022/01/23 15:06:06;;;;;;;32.57;17.80;;;;;;;3.17;75.85;101759.41;4941351;28;102007;-89
2022/01/23 15:08:32;;;;;;;30.53;18.40;;;;;;;3.34;75.99;101778.75;4937309;28;98047;-89